Time;durP1;ratioP1;P1;durP2;ratioP2;P2;SDS_P1;SDS_P2;PMS_P1;PMS_P2;Temp;Humidity;BMP_temperature;BMP_pressure;BME280_temperature;BME280_humidity;BME280_pressure;Samples;Min_cycle;Max_cycle;Signal;HPM_P1;HPM_P2
2023/10/17 00:01:16;;;;;;;;;;;;;;;;;;5010016;28;19920;-92
2023/10/17 00:03:44;;;;;;;;;;;;;;;;;;5021745;28;19973;-92
2023/10/17 00:06:13;;;;;;;;;;;;;;;;;;5005880;28;20300;-93
2023/10/17 00:08:39;;;;;;;;;;;;;;;;;;5006811;28;20361;-93
2023/10/17 00:11:07;;;;;;;;;;;;;;;;;;5003377;28;19920;-93
2023/10/17 00:13:39;;;;;;;;;;;;;;;;;;5003288;28;20224;-93
2023/10/17 00:16:07;;;;;;;;;;;;;;;;;;5024179;28;19925;-93
2023/10/17 00:18:33;;;;;;;;;;;;;;;;;;5005612;28;20328;-90
2023/10/17 00:21:10;;;;;;;;;;;;;;;;;;5007008;28;19913;-90
2023/10/17 00:23:39;;;;;;;;;;;;;;;;;;5015373;28;19916;-92
2023/10/17 00:26:08;;;;;;;;;;;;;;;;;;5009541;28;20369;-92
2023/10/17 00:28:35;;;;;;;;;;;;;;;;;;5020244;28;19917;-92
2023/10/17 00:31:04;;;;;;;;;;;;;;;;;;5005214;28;19950;-92
2023/10/17 00:33:32;;;;;;;;;;;;;;;;;;5006767;28;19920;-92
2023/10/17 00:35:58;;;;;;;;;;;;;;;;;;4998658;28;19949;-92
2023/10/17 00:38:29;;;;;;;;;;;;;;;;;;4985899;28;19914;-92
2023/10/17 00:40:56;;;;;;;;;;;;;;;;;;5003236;28;19964;-91
2023/10/17 00:43:28;;;;;;;;;;;;;;;;;;4990702;28;19913;-91
2023/10/17 00:45:54;;;;;;;;;;;;;;;;;;4989008;28;19922;-91
2023/10/17 00:48:22;;;;;;;;;;;;;;;;;;4991063;28;20387;-91
2023/10/17 00:50:48;;;;;;;;;;;;;;;;;;4995295;28;20443;-92
2023/10/17 00:53:14;;;;;;;;;;;;;;;;;;4996704;28;20016;-91
2023/10/17 00:55:49;;;;;;;;;;;;;;;;;;5012750;28;19971;-91
2023/10/17 00:58:15;;;;;;;;;;;;;;;;;;4990102;28;19922;-94
2023/10/17 01:00:47;;;;;;;;;;;;;;;;;;4991609;28;19940;-94
2023/10/17 01:03:13;;;;;;;;;;;;;;;;;;4989468;28;20068;-93
2023/10/17 01:05:39;;;;;;;;;;;;;;;;;;4987402;28;19953;-94
2023/10/17 01:08:05;;;;;;;;;;;;;;;;;;4988836;28;20469;-94
2023/10/17 01:10:31;;;;;;;;;;;;;;;;;;4992761;28;19921;-93
2023/10/17 01:13:02;;;;;;;;;;;;;;;;;;4987005;28;19921;-93
2023/10/17 01:15:28;;;;;;;;;;;;;;;;;;5013821;28;19917;-96
2023/10/17 01:17:55;;;;;;;;;;;;;;;;;;4998844;28;19932;-95
2023/10/17 01:20:21;;;;;;;;;;;;;;;;;;4990971;28;19913;-94
2023/10/17 01:22:47;;;;;;;;;;;;;;;;;;4994198;28;19961;-96
2023/10/17 01:25:26;;;;;;;;;;;;;;;;;;5000084;28;19968;-92
2023/10/17 01:27:52;;;;;;;;;;;;;;;;;;4996066;28;19917;-93
2023/10/17 01:30:29;;;;;;;;;;;;;;;;;;4991727;28;19921;-91
2023/10/17 01:32:56;;;;;;;;;;;;;;;;;;4992240;28;20170;-92
2023/10/17 01:35:22;;;;;;;;;;;;;;;;;;5021982;27;22601;-91
2023/10/17 01:37:48;;;;;;;;;;;;;;;;;;5000657;28;19922;-92
2023/10/17 01:40:27;;;;;;;;;;;;;;;;;;5007195;28;19928;-91
2023/10/17 01:42:53;;;;;;;;;;;;;;;;;;5005850;28;20019;-92
2023/10/17 01:45:30;;;;;;;;;;;;;;;;;;5008523;28;20088;-92
2023/10/17 01:47:55;;;;;;;;;;;;;;;;;;5011744;28;20637;-93
2023/10/17 01:50:24;;;;;;;;;;;;;;;;;;5002804;28;19924;-93
2023/10/17 01:52:53;;;;;;;;;;;;;;;;;;5006464;28;19917;-93
2023/10/17 01:55:24;;;;;;;;;;;;;;;;;;5012099;28;20425;-92
2023/10/17 01:57:54;;;;;;;;;;;;;;;;;;5009311;28;19921;-92
2023/10/17 02:02:58;;;;;;;;;;;;;;;;;;5024681;28;19921;-92
2023/10/17 02:05:24;;;;;;;;;;;;;;;;;;5009136;28;19921;-92
2023/10/17 02:07:50;;;;;;;;;;;;;;;;;;5011345;28;19964;-90
2023/10/17 02:10:21;;;;;;;;;;;;;;;;;;5014024;28;20005;-90
2023/10/17 02:12:48;;;;;;;;;;;;;;;;;;5016975;28;19992;-91
2023/10/17 02:15:20;;;;;;;;;;;;;;;;;;5013474;28;19974;-90
2023/10/17 02:17:46;;;;;;;;;;;;;;;;;;5009858;28;19971;-90
2023/10/17 02:22:54;;;;;;;;;;;;;;;;;;5027674;28;19921;-90
2023/10/17 02:25:34;;;;;;;;;;;;;;;;;;5014793;28;19917;-89
2023/10/17 02:28:00;;;;;;;;;;;;;;;;;;5013567;28;19920;-90
2023/10/17 02:30:26;;;;;;;;;;;;;;;;;;5009012;28;19917;-91
2023/10/17 02:32:53;;;;;;;;;;;;;;;;;;5012230;28;20362;-90
2023/10/17 02:35:21;;;;;;;;;;;;;;;;;;5016154;28;19921;-90
2023/10/17 02:37:48;;;;;;;;;;;;;;;;;;5014358;28;19921;-91
2023/10/17 02:40:20;;;;;;;;;;;;;;;;;;5012619;28;21144;-91
2023/10/17 02:42:46;;;;;;;;;;;;;;;;;;5013120;28;20014;-91
2023/10/17 02:45:12;;;;;;;;;;;;;;;;;;5017609;28;19976;-90
2023/10/17 02:47:43;;;;;;;;;;;;;;;;;;5013456;28;19917;-90
2023/10/17 02:52:55;;;;;;;;;;;;;;;;;;5004172;28;19913;-91
2023/10/17 02:55:27;;;;;;;;;;;;;;;;;;5014619;28;19917;-90
2023/10/17 02:57:53;;;;;;;;;;;;;;;;;;5012244;28;19947;-91
2023/10/17 03:00:21;;;;;;;;;;;;;;;;;;5011643;28;19913;-92
2023/10/17 03:02:48;;;;;;;;;;;;;;;;;;5016515;28;19928;-91
2023/10/17 03:05:15;;;;;;;;;;;;;;;;;;5031079;28;20300;-91
2023/10/17 03:07:42;;;;;;;;;;;;;;;;;;5012910;28;20354;-91
2023/10/17 03:10:08;;;;;;;;;;;;;;;;;;5004552;28;19917;-92
2023/10/17 03:12:55;;;;;;;;;;;;;;;;;;5031155;28;19959;-89
2023/10/17 03:15:22;;;;;;;;;;;;;;;;;;5027605;28;19924;-90
2023/10/17 03:17:54;;;;;;;;;;;;;;;;;;5013415;28;19932;-92
2023/10/17 03:20:19;;;;;;;;;;;;;;;;;;5008209;28;19913;-94
2023/10/17 03:22:45;;;;;;;;;;;;;;;;;;5005939;28;19917;-93
2023/10/17 03:25:24;;;;;;;;;;;;;;;;;;5013274;28;19913;-92
2023/10/17 03:27:50;;;;;;;;;;;;;;;;;;5015073;28;20324;-93
2023/10/17 03:30:19;;;;;;;;;;;;;;;;;;5008418;28;19921;-92
2023/10/17 03:35:28;;;;;;;;;;;;;;;;;;5029291;28;20301;-92
2023/10/17 03:37:57;;;;;;;;;;;;;;;;;;5013469;28;19998;-94
2023/10/17 03:40:40;;;;;;;;;;;;;;;;;;5014009;28;20054;-93
2023/10/17 03:43:12;;;;;;;;;;;;;;;;;;5010189;28;20340;-94
2023/10/17 03:45:52;;;;;;;;;;;;;;;;;;5010573;28;19918;-93
2023/10/17 03:48:20;;;;;;;;;;;;;;;;;;5009277;28;19917;-93
2023/10/17 03:55:51;;;;;;;;;;;;;;;;;;5028828;28;20345;-92
2023/10/17 04:00:49;;;;;;;;;;;;;;;;;;5031286;28;19971;-94
2023/10/17 04:03:30;;;;;;;;;;;;;;;;;;5012211;28;19917;-92
2023/10/17 04:06:12;;;;;;;;;;;;;;;;;;5008943;28;19913;-93
2023/10/17 04:08:41;;;;;;;;;;;;;;;;;;5010035;28;19913;-92
2023/10/17 04:11:08;;;;;;;;;;;;;;;;;;5013142;28;19921;-92
2023/10/17 04:13:34;;;;;;;;;;;;;;;;;;5012528;28;20028;-92
2023/10/17 04:16:08;;;;;;;;;;;;;;;;;;5011320;28;20056;-92
2023/10/17 04:18:37;;;;;;;;;;;;;;;;;;5009790;28;19921;-93
2023/10/17 04:21:17;;;;;;;;;;;;;;;;;;5015068;28;19929;-93
2023/10/17 04:23:43;;;;;;;;;;;;;;;;;;5011163;28;19937;-93
2023/10/17 04:26:17;;;;;;;;;;;;;;;;;;5011389;28;19918;-93
2023/10/17 04:28:48;;;;;;;;;;;;;;;;;;5010658;28;20000;-90
2023/10/17 04:31:22;;;;;;;;;;;;;;;;;;5010435;28;20382;-90
2023/10/17 04:33:48;;;;;;;;;;;;;;;;;;5009978;28;19924;-90
2023/10/17 04:36:15;;;;;;;;;;;;;;;;;;5014372;27;19925;-88
2023/10/17 04:38:46;;;;;;;;;;;;;;;;;;4997989;28;20008;-90
2023/10/17 04:41:36;;;;;;;;;;;;;;;;;;4994139;28;19929;-88
2023/10/17 04:44:15;;;;;;;;;;;;;;;;;;4989066;28;20008;-88
2023/10/17 04:46:49;;;;;;;;;;;;;;;;;;5000786;28;19928;-90
2023/10/17 04:49:20;;;;;;;;;;;;;;;;;;4994525;28;20009;-88
2023/10/17 04:51:52;;;;;;;;;;;;;;;;;;5006713;28;20425;-87
2023/10/17 04:54:39;;;;;;;;;;;;;;;;;;5006066;28;19924;-88
2023/10/17 04:57:47;;;;;;;;;;;;;;;;;;5006085;28;20660;-91
2023/10/17 05:00:09;;;;;;;;;;;;;;;;;;5004166;28;19922;-88
2023/10/17 05:02:42;;;;;;;;;;;;;;;;;;5005632;28;20321;-90
2023/10/17 06:18:52;;;;;;;;;;;;;;;;;;5008546;28;20282;-91
2023/10/17 06:21:18;;;;;;;;;;;;;;;;;;5009097;28;20016;-91
2023/10/17 06:34:31;;;;;;;;;;;;;;;;;;4990639;28;20366;-91
2023/10/17 06:37:43;;;;;;;;;;;;;;;;;;5012720;28;19925;-91
2023/10/17 06:39:50;;;;;;;;;;;;;;;;;;5016943;28;20000;-92
2023/10/17 06:42:18;;;;;;;;;;;;;;;;;;5014500;28;20415;-92
2023/10/17 06:47:31;;;;;;;;;;;;;;;;;;5028926;28;19966;-92
2023/10/17 06:53:02;;;;;;;;;;;;;;;;;;5028906;28;19920;-92
2023/10/17 06:55:44;;;;;;;;;;;;;;;;;;5023734;28;19967;-91
2023/10/17 06:58:10;;;;;;;;;;;;;;;;;;5014804;28;19917;-91
2023/10/17 07:00:44;;;;;;;;;;;;;;;;;;5013638;28;20015;-91
2023/10/17 07:03:13;;;;;;;;;;;;;;;;;;5007296;28;20226;-92
2023/10/17 07:05:39;;;;;;;;;;;;;;;;;;5005029;28;19989;-91
2023/10/17 07:08:13;;;;;;;;;;;;;;;;;;5017849;28;19952;-92
2023/10/17 07:10:40;;;;;;;;;;;;;;;;;;5010197;28;20434;-91
2023/10/17 07:13:06;;;;;;;;;;;;;;;;;;5018885;28;19921;-91
2023/10/17 07:15:32;;;;;;;;;;;;;;;;;;5025598;28;19924;-91
2023/10/17 07:21:17;;;;;;;;;;;;;;;;;;4990741;28;19956;-90
2023/10/17 07:23:54;;;;;;;;;;;;;;;;;;5009770;28;22569;-89
2023/10/17 07:28:55;;;;;;;;;;;;;;;;;;5028864;28;20353;-90
2023/10/17 07:31:28;;;;;;;;;;;;;;;;;;5008378;28;19917;-90
2023/10/17 07:36:39;;;;;;;;;;;;;;;;;;5029671;28;19924;-89
2023/10/17 07:39:06;;;;;;;;;;;;;;;;;;5014156;28;19964;-90
2023/10/17 07:41:36;;;;;;;;;;;;;;;;;;5007824;28;19936;-89
2023/10/17 07:44:09;;;;;;;;;;;;;;;;;;5029854;28;20381;-89
2023/10/17 07:46:36;;;;;;;;;;;;;;;;;;5004061;28;20341;-90
2023/10/17 07:49:05;;;;;;;;;;;;;;;;;;5011732;28;19913;-90
2023/10/17 07:51:32;;;;;;;;;;;;;;;;;;5009136;28;19913;-90
2023/10/17 07:53:58;;;;;;;;;;;;;;;;;;5014721;28;19913;-90
2023/10/17 07:56:25;;;;;;;;;;;;;;;;;;5016579;28;19925;-89
2023/10/17 07:59:04;;;;;;;;;;;;;;;;;;5009006;28;19964;-92
2023/10/17 08:01:41;;;;;;;;;;;;;;;;;;5008782;28;19921;-91
2023/10/17 08:04:17;;;;;;;;;;;;;;;;;;5013443;28;20388;-91
2023/10/17 08:06:43;;;;;;;;;;;;;;;;;;5011136;28;19917;-92
2023/10/17 08:09:24;;;;;;;;;;;;;;;;;;5023596;28;20197;-90
2023/10/17 08:12:02;;;;;;;;;;;;;;;;;;5023595;28;20294;-92
2023/10/17 08:14:40;;;;;;;;;;;;;;;;;;5008282;28;19940;-92
2023/10/17 08:17:08;;;;;;;;;;;;;;;;;;5011664;28;20012;-91
2023/10/17 08:22:19;;;;;;;;;;;;;;;;;;5027832;28;20441;-91
2023/10/17 08:24:51;;;;;;;;;;;;;;;;;;5008262;28;20003;-92
2023/10/17 08:29:49;;;;;;;;;;;;;;;;;;5028052;28;19913;-92
2023/10/17 08:34:47;;;;;;;;;;;;;;;;;;5030124;28;19921;-91
2023/10/17 08:37:59;;;;;;;;;;;;;;;;;;5008747;28;20452;-92
2023/10/17 08:39:59;;;;;;;;;;;;;;;;;;5020928;28;20381;-90
2023/10/17 08:44:55;;;;;;;;;;;;;;;;;;5028743;28;20400;-89
2023/10/17 08:47:25;;;;;;;;;;;;;;;;;;5008894;28;19952;-90
2023/10/17 08:49:51;;;;;;;;;;;;;;;;;;5022443;28;19917;-89
2023/10/17 08:52:17;;;;;;;;;;;;;;;;;;5004351;28;19963;-90
2023/10/17 08:54:43;;;;;;;;;;;;;;;;;;5009855;28;19921;-90
2023/10/17 08:57:09;;;;;;;;;;;;;;;;;;5012756;28;19921;-90
2023/10/17 09:04:52;;;;;;;;;;;;;;;;;;5024324;28;19925;-89
2023/10/17 09:07:22;;;;;;;;;;;;;;;;;;5019030;28;19960;-89
2023/10/17 09:09:54;;;;;;;;;;;;;;;;;;5010815;28;19917;-90
2023/10/17 09:12:21;;;;;;;;;;;;;;;;;;5007239;28;19964;-90
2023/10/17 09:14:52;;;;;;;;;;;;;;;;;;5004483;28;19917;-90
2023/10/17 09:19:53;;;;;;;;;;;;;;;;;;5023155;28;19952;-90
2023/10/17 09:22:20;;;;;;;;;;;;;;;;;;5013437;28;19917;-90
2023/10/17 09:24:48;;;;;;;;;;;;;;;;;;5010980;28;19921;-90
2023/10/17 09:27:14;;;;;;;;;;;;;;;;;;5025841;28;19999;-90
2023/10/17 09:29:40;;;;;;;;;;;;;;;;;;5011479;28;19913;-90
2023/10/17 09:32:09;;;;;;;;;;;;;;;;;;5017091;28;19943;-89
2023/10/17 09:34:36;;;;;;;;;;;;;;;;;;5010001;28;19917;-90
2023/10/17 09:37:05;;;;;;;;;;;;;;;;;;5007127;28;19948;-90
2023/10/17 09:39:31;;;;;;;;;;;;;;;;;;5006662;28;19925;-90
2023/10/17 09:42:01;;;;;;;;;;;;;;;;;;4999310;28;19914;-90
2023/10/17 09:44:27;;;;;;;;;;;;;;;;;;5008993;28;19917;-90
2023/10/17 09:46:54;;;;;;;;;;;;;;;;;;4982183;28;20445;-90
2023/10/17 09:49:19;;;;;;;;;;;;;;;;;;5014417;28;19917;-90
2023/10/17 09:51:46;;;;;;;;;;;;;;;;;;4992975;28;19966;-89
2023/10/17 09:54:12;;;;;;;;;;;;;;;;;;4992264;28;19920;-89
2023/10/17 09:56:38;;;;;;;;;;;;;;;;;;5008302;28;19926;-88
2023/10/17 09:59:04;;;;;;;;;;;;;;;;;;4993266;28;20306;-89
2023/10/17 10:01:31;;;;;;;;;;;;;;;;;;4996397;28;20108;-90
2023/10/17 10:03:57;;;;;;;;;;;;;;;;;;4994343;28;19917;-90
2023/10/17 10:06:23;;;;;;;;;;;;;;;;;;4993419;28;19917;-89
2023/10/17 10:08:49;;;;;;;;;;;;;;;;;;4998634;28;19921;-90
2023/10/17 10:11:15;;;;;;;;;;;;;;;;;;4994882;28;20412;-90
2023/10/17 10:13:41;;;;;;;;;;;;;;;;;;4987556;28;19913;-89
2023/10/17 10:16:08;;;;;;;;;;;;;;;;;;4997051;28;20436;-91
2023/10/17 10:18:40;;;;;;;;;;;;;;;;;;5008380;28;19927;-90
2023/10/17 10:21:12;;;;;;;;;;;;;;;;;;5003665;28;19917;-90
2023/10/17 10:23:41;;;;;;;;;;;;;;;;;;4994833;28;19941;-90
2023/10/17 10:26:07;;;;;;;;;;;;;;;;;;4996972;28;20462;-90
2023/10/17 10:28:33;;;;;;;;;;;;;;;;;;4990806;28;20346;-90
2023/10/17 10:30:59;;;;;;;;;;;;;;;;;;4992959;28;20012;-90
2023/10/17 10:33:28;;;;;;;;;;;;;;;;;;4989457;28;20044;-90
2023/10/17 10:35:54;;;;;;;;;;;;;;;;;;5000051;28;19921;-90
2023/10/17 10:38:20;;;;;;;;;;;;;;;;;;5006117;28;19925;-89
2023/10/17 10:40:46;;;;;;;;;;;;;;;;;;5011145;28;19972;-90
2023/10/17 10:43:12;;;;;;;;;;;;;;;;;;5013647;28;19935;-90
2023/10/17 10:45:55;;;;;;;;;;;;;;;;;;5013152;28;19985;-90
2023/10/17 10:48:21;;;;;;;;;;;;;;;;;;5021190;28;19927;-88
2023/10/17 10:50:55;;;;;;;;;;;;;;;;;;5020922;28;19975;-90
2023/10/17 10:53:20;;;;;;;;;;;;;;;;;;5028506;28;20360;-90
2023/10/17 10:55:46;;;;;;;;;;;;;;;;;;5023449;28;19913;-90
2023/10/17 10:58:12;;;;;;;;;;;;;;;;;;5019826;28;20010;-90
2023/10/17 11:00:38;;;;;;;;;;;;;;;;;;5014505;28;19964;-90
2023/10/17 11:03:04;;;;;;;;;;;;;;;;;;5029921;28;20019;-90
2023/10/17 11:05:30;;;;;;;;;;;;;;;;;;5017264;28;20431;-90
2023/10/17 11:07:56;;;;;;;;;;;;;;;;;;5010171;28;19913;-90
2023/10/17 11:10:22;;;;;;;;;;;;;;;;;;5018754;28;19939;-90
2023/10/17 11:12:48;;;;;;;;;;;;;;;;;;5010857;28;19913;-90
2023/10/17 11:15:14;;;;;;;;;;;;;;;;;;5013708;28;20019;-90
2023/10/17 11:17:43;;;;;;;;;;;;;;;;;;5008979;28;20008;-90
2023/10/17 11:20:18;;;;;;;;;;;;;;;;;;5014325;28;20353;-90
2023/10/17 11:22:44;;;;;;;;;;;;;;;;;;5008760;28;20019;-90
2023/10/17 11:25:13;;;;;;;;;;;;;;;;;;5008987;28;20432;-90
2023/10/17 11:27:41;;;;;;;;;;;;;;;;;;5005337;28;19940;-90
2023/10/17 11:30:07;;;;;;;;;;;;;;;;;;5010845;28;19916;-90
2023/10/17 11:32:39;;;;;;;;;;;;;;;;;;4999915;28;20007;-90
2023/10/17 11:35:11;;;;;;;;;;;;;;;;;;5007931;28;19957;-90
2023/10/17 11:37:38;;;;;;;;;;;;;;;;;;5005700;28;19922;-90
2023/10/17 11:40:17;;;;;;;;;;;;;;;;;;5007419;28;19976;-90
2023/10/17 11:42:49;;;;;;;;;;;;;;;;;;5017025;28;19917;-90
2023/10/17 11:45:33;;;;;;;;;;;;;;;;;;5000903;28;19942;-90
2023/10/17 11:48:06;;;;;;;;;;;;;;;;;;5021257;28;19918;-90
2023/10/17 11:50:38;;;;;;;;;;;;;;;;;;5008350;28;19913;-91
2023/10/17 11:53:05;;;;;;;;;;;;;;;;;;5020855;28;20196;-90
2023/10/17 11:55:33;;;;;;;;;;;;;;;;;;5000542;28;20104;-90
2023/10/17 11:57:59;;;;;;;;;;;;;;;;;;4998839;28;20931;-90
2023/10/17 12:00:26;;;;;;;;;;;;;;;;;;5020267;28;19929;-89
2023/10/17 12:02:52;;;;;;;;;;;;;;;;;;5015977;28;19928;-89
2023/10/17 12:05:27;;;;;;;;;;;;;;;;;;5021994;28;20352;-91
2023/10/17 12:07:59;;;;;;;;;;;;;;;;;;5022522;28;19917;-90
2023/10/17 12:10:25;;;;;;;;;;;;;;;;;;5007784;28;20382;-90
2023/10/17 12:13:05;;;;;;;;;;;;;;;;;;5004404;28;19920;-90
2023/10/17 12:15:31;;;;;;;;;;;;;;;;;;5004986;28;20389;-90
2023/10/17 12:17:57;;;;;;;;;;;;;;;;;;5025712;28;19917;-91
2023/10/17 12:20:26;;;;;;;;;;;;;;;;;;5005911;28;19917;-91
2023/10/17 12:22:52;;;;;;;;;;;;;;;;;;5020090;28;19917;-90
2023/10/17 12:25:22;;;;;;;;;;;;;;;;;;5017110;28;20300;-91
2023/10/17 12:27:49;;;;;;;;;;;;;;;;;;5004831;28;19917;-91
2023/10/17 12:30:22;;;;;;;;;;;;;;;;;;5002962;28;19923;-90
2023/10/17 12:32:49;;;;;;;;;;;;;;;;;;5005512;28;19940;-90
2023/10/17 12:35:16;;;;;;;;;;;;;;;;;;5017367;28;19921;-90
2023/10/17 12:37:45;;;;;;;;;;;;;;;;;;5025537;28;19986;-90
2023/10/17 12:40:18;;;;;;;;;;;;;;;;;;5028730;28;19936;-90
2023/10/17 12:42:44;;;;;;;;;;;;;;;;;;5023505;28;19921;-89
2023/10/17 12:45:11;;;;;;;;;;;;;;;;;;5028923;28;20645;-90
2023/10/17 12:47:38;;;;;;;;;;;;;;;;;;5028855;28;19921;-89
2023/10/17 12:50:04;;;;;;;;;;;;;;;;;;5028655;28;19914;-90
2023/10/17 12:52:30;;;;;;;;;;;;;;;;;;5024583;28;19972;-90
2023/10/17 12:54:56;;;;;;;;;;;;;;;;;;5012600;28;19975;-90
2023/10/17 12:57:22;;;;;;;;;;;;;;;;;;5027510;28;19932;-91
2023/10/17 12:59:48;;;;;;;;;;;;;;;;;;5031000;28;20141;-90
2023/10/17 13:02:15;;;;;;;;;;;;;;;;;;5012157;28;20206;-90
2023/10/17 13:04:41;;;;;;;;;;;;;;;;;;5027934;28;19913;-90
2023/10/17 13:07:08;;;;;;;;;;;;;;;;;;5028141;28;20373;-90
2023/10/17 13:09:34;;;;;;;;;;;;;;;;;;5025920;28;19924;-90
2023/10/17 13:12:00;;;;;;;;;;;;;;;;;;5027902;28;19917;-90
2023/10/17 13:14:26;;;;;;;;;;;;;;;;;;5014377;28;20395;-91
2023/10/17 13:16:52;;;;;;;;;;;;;;;;;;5031481;28;19947;-91
2023/10/17 13:19:19;;;;;;;;;;;;;;;;;;5030317;28;20492;-92
2023/10/17 13:21:45;;;;;;;;;;;;;;;;;;5023245;28;20006;-90
2023/10/17 13:24:13;;;;;;;;;;;;;;;;;;5027848;28;19921;-90
2023/10/17 13:26:39;;;;;;;;;;;;;;;;;;5010817;28;20042;-90
2023/10/17 13:29:05;;;;;;;;;;;;;;;;;;5027533;28;19928;-90
2023/10/17 13:31:37;;;;;;;;;;;;;;;;;;5008756;28;20559;-90
2023/10/17 13:34:04;;;;;;;;;;;;;;;;;;5008948;28;20445;-90
2023/10/17 13:36:30;;;;;;;;;;;;;;;;;;5007968;28;19921;-91
2023/10/17 13:38:59;;;;;;;;;;;;;;;;;;5004995;28;19921;-91
2023/10/17 13:41:25;;;;;;;;;;;;;;;;;;5004775;28;20289;-90
2023/10/17 13:43:51;;;;;;;;;;;;;;;;;;5005096;28;19913;-91
2023/10/17 13:46:17;;;;;;;;;;;;;;;;;;4987836;28;20624;-90
2023/10/17 13:48:49;;;;;;;;;;;;;;;;;;4987009;28;20457;-91
2023/10/17 13:51:15;;;;;;;;;;;;;;;;;;4994462;28;19913;-93
2023/10/17 13:53:43;;;;;;;;;;;;;;;;;;4988014;28;19913;-91
2023/10/17 13:56:10;;;;;;;;;;;;;;;;;;4985819;28;19914;-92
2023/10/17 13:58:38;;;;;;;;;;;;;;;;;;5005283;28;19952;-92
2023/10/17 14:01:27;;;;;;;;;;;;;;;;;;4986075;28;20324;-91
2023/10/17 14:03:50;;;;;;;;;;;;;;;;;;5002499;28;20016;-92
2023/10/17 14:06:16;;;;;;;;;;;;;;;;;;5006811;28;19914;-92
2023/10/17 14:08:42;;;;;;;;;;;;;;;;;;5000883;28;19961;-91
2023/10/17 14:11:08;;;;;;;;;;;;;;;;;;5004651;28;19949;-92
2023/10/17 14:13:34;;;;;;;;;;;;;;;;;;5002648;28;19921;-92
2023/10/17 14:16:00;;;;;;;;;;;;;;;;;;4990466;28;19924;-93
2023/10/17 14:18:40;;;;;;;;;;;;;;;;;;5004305;28;19925;-92
2023/10/17 14:24:10;;;;;;;;;;;;;;;;;;4972773;28;19922;-92
2023/10/17 14:26:36;;;;;;;;;;;;;;;;;;4987936;28;19957;-92
2023/10/17 14:29:03;;;;;;;;;;;;;;;;;;4995967;28;19913;-92
2023/10/17 14:31:32;;;;;;;;;;;;;;;;;;4987017;28;19913;-91
2023/10/17 14:33:59;;;;;;;;;;;;;;;;;;4986314;28;19928;-92
2023/10/17 14:36:26;;;;;;;;;;;;;;;;;;5007367;28;19913;-92
2023/10/17 14:38:52;;;;;;;;;;;;;;;;;;4989002;28;19924;-91
2023/10/17 14:41:18;;;;;;;;;;;;;;;;;;4999180;28;19913;-92
2023/10/17 14:43:49;;;;;;;;;;;;;;;;;;4995109;28;19966;-91
2023/10/17 14:46:16;;;;;;;;;;;;;;;;;;4992215;28;19925;-90
2023/10/17 14:48:42;;;;;;;;;;;;;;;;;;4992454;28;20357;-89
2023/10/17 14:51:09;;;;;;;;;;;;;;;;;;5004947;28;20381;-93
2023/10/17 14:53:35;;;;;;;;;;;;;;;;;;4992125;28;20324;-91
2023/10/17 14:56:04;;;;;;;;;;;;;;;;;;4994167;28;20164;-92
2023/10/17 14:58:31;;;;;;;;;;;;;;;;;;4991747;28;20238;-91
2023/10/17 15:00:57;;;;;;;;;;;;;;;;;;4993331;28;20008;-90
2023/10/17 15:03:25;;;;;;;;;;;;;;;;;;5009172;28;20003;-90
2023/10/17 15:05:51;;;;;;;;;;;;;;;;;;4990774;28;20254;-90
2023/10/17 15:08:18;;;;;;;;;;;;;;;;;;5003548;28;19918;-89
2023/10/17 15:10:45;;;;;;;;;;;;;;;;;;4993874;28;19918;-90
2023/10/17 15:13:11;;;;;;;;;;;;;;;;;;5018988;28;19917;-90
2023/10/17 15:15:37;;;;;;;;;;;;;;;;;;4994014;28;19917;-91
2023/10/17 15:18:06;;;;;;;;;;;;;;;;;;5011108;28;19925;-91
2023/10/17 15:20:32;;;;;;;;;;;;;;;;;;4992851;28;20301;-91
2023/10/17 15:22:58;;;;;;;;;;;;;;;;;;4994971;28;19913;-90
2023/10/17 15:25:24;;;;;;;;;;;;;;;;;;5008427;28;19944;-90
2023/10/17 15:27:50;;;;;;;;;;;;;;;;;;4995353;28;20014;-90
2023/10/17 15:30:18;;;;;;;;;;;;;;;;;;5006334;28;20378;-90
2023/10/17 15:32:44;;;;;;;;;;;;;;;;;;4994697;28;20374;-90
2023/10/17 15:35:13;;;;;;;;;;;;;;;;;;5004227;28;20029;-91
2023/10/17 15:37:41;;;;;;;;;;;;;;;;;;5020177;28;20360;-90
2023/10/17 15:40:08;;;;;;;;;;;;;;;;;;5012709;28;19975;-90
2023/10/17 15:42:35;;;;;;;;;;;;;;;;;;5005914;28;20419;-91
2023/10/17 15:45:01;;;;;;;;;;;;;;;;;;5003278;28;19917;-90
2023/10/17 15:47:27;;;;;;;;;;;;;;;;;;5011284;28;19939;-92
2023/10/17 15:49:53;;;;;;;;;;;;;;;;;;5017956;28;19917;-92
2023/10/17 15:52:19;;;;;;;;;;;;;;;;;;5014743;28;20599;-91
2023/10/17 15:54:45;;;;;;;;;;;;;;;;;;5012185;28;19975;-92
2023/10/17 15:57:18;;;;;;;;;;;;;;;;;;5007641;28;19921;-91
2023/10/17 15:59:44;;;;;;;;;;;;;;;;;;5013132;28;19921;-92
2023/10/17 16:02:12;;;;;;;;;;;;;;;;;;5003621;28;19960;-92
2023/10/17 16:04:41;;;;;;;;;;;;;;;;;;5028388;28;19913;-92
2023/10/17 16:07:11;;;;;;;;;;;;;;;;;;5014950;28;20377;-92
2023/10/17 16:09:39;;;;;;;;;;;;;;;;;;5011878;28;19918;-90
2023/10/17 16:12:05;;;;;;;;;;;;;;;;;;5009351;28;19941;-89
2023/10/17 16:14:32;;;;;;;;;;;;;;;;;;5008065;28;19954;-89
2023/10/17 16:16:58;;;;;;;;;;;;;;;;;;5004188;28;19925;-89
2023/10/17 16:19:24;;;;;;;;;;;;;;;;;;5025501;28;20012;-89
2023/10/17 16:21:50;;;;;;;;;;;;;;;;;;5015561;28;20365;-89
2023/10/17 16:24:16;;;;;;;;;;;;;;;;;;5008086;28;19960;-89
2023/10/17 16:26:43;;;;;;;;;;;;;;;;;;5001071;28;19914;-90
2023/10/17 16:29:15;;;;;;;;;;;;;;;;;;5008875;28;20435;-90
2023/10/17 16:31:41;;;;;;;;;;;;;;;;;;5003442;28;19936;-90
2023/10/17 16:34:07;;;;;;;;;;;;;;;;;;5006894;28;19917;-90
2023/10/17 16:36:33;;;;;;;;;;;;;;;;;;5009098;28;20157;-89
2023/10/17 16:38:59;;;;;;;;;;;;;;;;;;5007683;28;19917;-89
2023/10/17 16:41:25;;;;;;;;;;;;;;;;;;5004140;28;19928;-89
2023/10/17 16:43:51;;;;;;;;;;;;;;;;;;5024258;28;19921;-89
2023/10/17 16:46:19;;;;;;;;;;;;;;;;;;5022134;28;20411;-89
2023/10/17 16:48:46;;;;;;;;;;;;;;;;;;5025120;28;19921;-89
2023/10/17 16:51:12;;;;;;;;;;;;;;;;;;5019973;28;19917;-90
2023/10/17 16:53:38;;;;;;;;;;;;;;;;;;5008289;28;19948;-89
2023/10/17 16:56:04;;;;;;;;;;;;;;;;;;5010019;28;19913;-89
2023/10/17 16:58:30;;;;;;;;;;;;;;;;;;5006874;28;20010;-91
2023/10/17 17:00:56;;;;;;;;;;;;;;;;;;5021685;28;19968;-91
2023/10/17 17:03:27;;;;;;;;;;;;;;;;;;5019153;28;19987;-91
2023/10/17 17:05:53;;;;;;;;;;;;;;;;;;5006407;28;19918;-91
2023/10/17 17:08:19;;;;;;;;;;;;;;;;;;5025988;28;20085;-91
2023/10/17 17:10:45;;;;;;;;;;;;;;;;;;5008576;28;19929;-92
2023/10/17 17:13:11;;;;;;;;;;;;;;;;;;5004976;28;20346;-91
2023/10/17 17:15:37;;;;;;;;;;;;;;;;;;5023265;28;19917;-90
2023/10/17 17:18:05;;;;;;;;;;;;;;;;;;5008939;28;20381;-89
2023/10/17 17:20:31;;;;;;;;;;;;;;;;;;5028385;28;20377;-90
2023/10/17 17:22:58;;;;;;;;;;;;;;;;;;5024664;28;19924;-89
2023/10/17 17:25:26;;;;;;;;;;;;;;;;;;5021463;28;19921;-89
2023/10/17 17:27:52;;;;;;;;;;;;;;;;;;4998926;28;19924;-89
2023/10/17 17:30:19;;;;;;;;;;;;;;;;;;5025297;28;19974;-89
2023/10/17 17:32:45;;;;;;;;;;;;;;;;;;5004712;28;20416;-89
2023/10/17 17:35:11;;;;;;;;;;;;;;;;;;5020944;28;19917;-89
2023/10/17 17:37:37;;;;;;;;;;;;;;;;;;5011763;28;19927;-89
2023/10/17 17:40:03;;;;;;;;;;;;;;;;;;5004304;28;19917;-91
2023/10/17 17:42:29;;;;;;;;;;;;;;;;;;5003065;28;20332;-89
2023/10/17 17:45:02;;;;;;;;;;;;;;;;;;5001411;28;19927;-89
2023/10/17 17:47:28;;;;;;;;;;;;;;;;;;4999330;28;19940;-89
2023/10/17 17:49:54;;;;;;;;;;;;;;;;;;5005756;28;20018;-89
2023/10/17 17:52:20;;;;;;;;;;;;;;;;;;5003159;28;20277;-90
2023/10/17 17:54:46;;;;;;;;;;;;;;;;;;5005372;28;19921;-90
2023/10/17 17:57:12;;;;;;;;;;;;;;;;;;5008760;28;19921;-88
2023/10/17 17:59:39;;;;;;;;;;;;;;;;;;5021941;28;19924;-90
2023/10/17 18:02:05;;;;;;;;;;;;;;;;;;5008880;28;19917;-89
2023/10/17 18:04:31;;;;;;;;;;;;;;;;;;5011685;28;20400;-89
2023/10/17 18:07:03;;;;;;;;;;;;;;;;;;5006550;28;19921;-90
2023/10/17 18:09:29;;;;;;;;;;;;;;;;;;5008933;28;19921;-90
2023/10/17 18:11:55;;;;;;;;;;;;;;;;;;4997838;28;19921;-90
2023/10/17 18:14:22;;;;;;;;;;;;;;;;;;5008034;28;20146;-90
2023/10/17 18:16:48;;;;;;;;;;;;;;;;;;5010047;28;20229;-89
2023/10/17 18:19:13;;;;;;;;;;;;;;;;;;5013566;28;19912;-89
2023/10/17 18:21:39;;;;;;;;;;;;;;;;;;5008662;28;19920;-89
2023/10/17 18:24:06;;;;;;;;;;;;;;;;;;5006110;28;21392;-89
2023/10/17 18:26:32;;;;;;;;;;;;;;;;;;5013661;28;19917;-90
2023/10/17 18:28:58;;;;;;;;;;;;;;;;;;5022283;28;20428;-91
2023/10/17 18:31:24;;;;;;;;;;;;;;;;;;5017042;28;19913;-89
2023/10/17 18:33:51;;;;;;;;;;;;;;;;;;5005603;28;19921;-90
2023/10/17 18:36:17;;;;;;;;;;;;;;;;;;5003855;28;19918;-90
2023/10/17 18:38:46;;;;;;;;;;;;;;;;;;5002917;28;19918;-89
2023/10/17 18:41:12;;;;;;;;;;;;;;;;;;4988492;28;19917;-89
2023/10/17 18:43:38;;;;;;;;;;;;;;;;;;4986469;28;19917;-89
2023/10/17 18:46:04;;;;;;;;;;;;;;;;;;5005924;28;19913;-89
2023/10/17 18:48:30;;;;;;;;;;;;;;;;;;5005329;28;19944;-89
2023/10/17 18:50:56;;;;;;;;;;;;;;;;;;4989647;28;20573;-89
2023/10/17 18:56:08;;;;;;;;;;;;;;;;;;4999357;28;20413;-89
2023/10/17 18:58:35;;;;;;;;;;;;;;;;;;4990186;28;19975;-89
2023/10/17 19:01:01;;;;;;;;;;;;;;;;;;5009284;28;19975;-91
2023/10/17 19:03:28;;;;;;;;;;;;;;;;;;4988078;28;19917;-90
2023/10/17 19:05:54;;;;;;;;;;;;;;;;;;4987250;28;19951;-89
2023/10/17 19:08:23;;;;;;;;;;;;;;;;;;4990186;28;19917;-90
2023/10/17 19:10:50;;;;;;;;;;;;;;;;;;4988810;28;20593;-90
2023/10/17 19:13:16;;;;;;;;;;;;;;;;;;4986755;28;19921;-89
2023/10/17 19:15:42;;;;;;;;;;;;;;;;;;4988560;28;19918;-89